createdAt,value
2022-08-11T00:02:00.857Z,101969.53
2022-08-11T00:04:35.498Z,101971.41
2022-08-11T00:07:06.980Z,101978.53
2022-08-11T00:09:39.531Z,101972.50
2022-08-11T00:12:18.147Z,101962.00
2022-08-11T00:14:46.411Z,101973.56
2022-08-11T00:17:15.976Z,101965.66
2022-08-11T00:20:15.368Z,101971.81
2022-08-11T00:22:36.801Z,101963.09
2022-08-11T00:25:19.390Z,101965.00
2022-08-11T00:27:48.119Z,101964.94
2022-08-11T00:30:16.939Z,101966.69
2022-08-11T00:32:54.816Z,101972.16
2022-08-11T00:35:51.366Z,101967.91
2022-08-11T00:38:17.615Z,101968.75
2022-08-11T00:41:16.778Z,101963.44
2022-08-11T00:44:27.176Z,101960.03
2022-08-11T00:47:03.263Z,101963.84
2022-08-11T00:50:17.617Z,101966.63
2022-08-11T00:52:50.958Z,101961.38
2022-08-11T00:56:03.428Z,101962.34
2022-08-11T00:59:34.664Z,101959.94
2022-08-11T01:02:44.485Z,101960.03
2022-08-11T01:05:33.425Z,101955.69
2022-08-11T01:08:54.144Z,101961.16
2022-08-11T01:11:55.304Z,101954.09
2022-08-11T01:15:09.947Z,101956.75
2022-08-11T01:17:58.628Z,101955.84
2022-08-11T01:21:17.371Z,101963.19
2022-08-11T01:24:32.494Z,101949.25
2022-08-11T01:27:21.271Z,101962.69
2022-08-11T01:30:31.440Z,101966.31
2022-08-11T01:33:41.565Z,101964.69
2022-08-11T01:36:57.240Z,101963.19
2022-08-11T01:39:55.007Z,101953.47
2022-08-11T01:43:19.378Z,101958.06
2022-08-11T01:46:21.322Z,101959.09
2022-08-11T01:49:56.069Z,101978.47
2022-08-11T01:52:08.873Z,101974.44
2022-08-11T01:55:19.664Z,101971.72
2022-08-11T01:58:02.752Z,101974.56
2022-08-11T02:00:33.009Z,101977.28
2022-08-11T02:03:06.911Z,101980.78
2022-08-11T02:06:34.830Z,101972.06
2022-08-11T02:09:34.796Z,101971.16
2022-08-11T02:13:00.527Z,101963.25
2022-08-11T02:15:38.925Z,101973.13
2022-08-11T02:18:52.914Z,101962.63
2022-08-11T02:21:56.727Z,101972.38
2022-08-11T02:25:12.248Z,101966.22
2022-08-11T02:28:12.839Z,101965.56
2022-08-11T02:32:14.904Z,101968.22
2022-08-11T02:34:42.634Z,101957.63
2022-08-11T02:37:45.297Z,101960.41
2022-08-11T02:40:34.465Z,101957.69
2022-08-11T02:43:19.057Z,101958.56
2022-08-11T02:46:20.528Z,101956.19
2022-08-11T02:49:38.062Z,101965.00
2022-08-11T02:52:31.725Z,101951.81
2022-08-11T02:55:44.436Z,101957.25
2022-08-11T02:58:35.831Z,101958.16
2022-08-11T03:01:23.507Z,101961.63
2022-08-11T03:04:00.747Z,101958.22
2022-08-11T03:06:46.501Z,101961.81
2022-08-11T03:09:40.407Z,101959.31
2022-08-11T03:12:43.752Z,101960.22
2022-08-11T03:15:40.248Z,101955.78
2022-08-11T03:18:25.195Z,101947.03
2022-08-11T03:21:23.635Z,101944.44
2022-08-11T03:24:30.760Z,101962.28
2022-08-11T03:27:41.395Z,101956.94
2022-08-11T03:30:21.509Z,101957.88
2022-08-11T03:33:56.458Z,101957.97
2022-08-11T03:36:54.714Z,101962.41
2022-08-11T03:40:16.134Z,101956.31
2022-08-11T03:43:07.803Z,101960.75
2022-08-11T03:46:14.123Z,101961.75
2022-08-11T03:49:09.436Z,101967.16
2022-08-11T03:52:05.959Z,101959.19
2022-08-11T03:54:32.848Z,101967.22
2022-08-11T03:57:42.554Z,101956.72
2022-08-11T04:00:52.597Z,101950.41
2022-08-11T04:04:14.352Z,101962.97
2022-08-11T04:07:17.685Z,101964.69
2022-08-11T04:10:12.927Z,101960.25
2022-08-11T04:12:59.313Z,101958.66
2022-08-11T04:16:16.471Z,101953.28
2022-08-11T04:19:16.169Z,101953.38
2022-08-11T04:22:46.046Z,101956.13
2022-08-11T04:25:29.067Z,101959.59
2022-08-11T04:28:28.836Z,101957.78
2022-08-11T04:31:44.268Z,101957.78
2022-08-11T04:34:54.816Z,101955.03
2022-08-11T04:38:39.227Z,101952.47
2022-08-11T04:42:26.207Z,101953.44
2022-08-11T04:45:22.498Z,101960.47
2022-08-11T04:48:39.878Z,101964.84
2022-08-11T04:52:38.127Z,101963.13
2022-08-11T04:56:22.443Z,101962.06
2022-08-11T04:59:52.878Z,101967.47
2022-08-11T05:02:51.007Z,101972.69
2022-08-11T05:05:57.811Z,101974.47
2022-08-11T05:09:18.390Z,101978.00
2022-08-11T05:12:15.023Z,101965.47
2022-08-11T05:15:12.826Z,101965.41
2022-08-11T05:18:35.653Z,101968.81
2022-08-11T05:21:29.772Z,101969.53
2022-08-11T05:24:41.200Z,101977.38
2022-08-11T05:27:30.748Z,101975.38
2022-08-11T05:30:26.914Z,101974.34
2022-08-11T05:33:28.716Z,101975.28
2022-08-11T05:36:31.153Z,101974.16
2022-08-11T05:39:37.233Z,101975.78
2022-08-11T05:42:39.220Z,101983.78
2022-08-11T05:46:02.943Z,101979.13
2022-08-11T05:48:41.190Z,101982.56
2022-08-11T05:51:30.624Z,101990.22
2022-08-11T05:54:28.221Z,101986.69
2022-08-11T05:57:02.229Z,101983.03
2022-08-11T05:59:31.267Z,101991.72
2022-08-11T06:02:05.094Z,101988.19
2022-08-11T06:04:34.382Z,101990.56
2022-08-11T06:07:10.268Z,101991.88
2022-08-11T06:09:44.503Z,101998.00
2022-08-11T06:12:26.821Z,101987.94
2022-08-11T06:15:02.154Z,101999.19
2022-08-11T06:17:39.008Z,101988.41
2022-08-11T06:20:11.820Z,101995.50
2022-08-11T06:22:52.791Z,101990.72
2022-08-11T06:25:21.341Z,101992.41
2022-08-11T06:27:56.722Z,101995.56
2022-08-11T06:30:46.535Z,102001.44
2022-08-11T06:33:30.940Z,102003.22
2022-08-11T06:36:14.481Z,101997.09
2022-08-11T06:39:17.819Z,102007.91
2022-08-11T06:42:09.340Z,102001.78
2022-08-11T06:44:55.433Z,102007.47
2022-08-11T06:47:22.825Z,102006.22
2022-08-11T06:50:09.009Z,102006.38
2022-08-11T06:52:38.523Z,102006.03
2022-08-11T06:55:58.096Z,102014.53
2022-08-11T06:58:50.827Z,102018.91
2022-08-11T07:01:47.694Z,102020.25
2022-08-11T07:04:32.783Z,102013.38
2022-08-11T07:10:30.866Z,102022.09
2022-08-11T07:13:44.918Z,102016.03
2022-08-11T07:16:11.739Z,102011.69
2022-08-11T07:19:01.219Z,102013.16
2022-08-11T07:22:03.157Z,102015.34
2022-08-11T07:25:16.577Z,102011.72
2022-08-11T07:28:15.152Z,102014.38
2022-08-11T07:30:43.314Z,102016.00
2022-08-11T07:33:19.007Z,102007.00
2022-08-11T07:36:01.769Z,102009.19
2022-08-11T07:38:46.102Z,102015.59
2022-08-11T07:41:16.938Z,102018.13
2022-08-11T07:43:51.453Z,102010.16
2022-08-11T07:46:38.708Z,102009.97
2022-08-11T07:49:28.762Z,102016.50
2022-08-11T07:52:15.127Z,102004.00
2022-08-11T07:54:43.895Z,102008.03
2022-08-11T07:58:13.658Z,102007.91
2022-08-11T08:00:40.566Z,102022.56
2022-08-11T08:03:28.244Z,102015.34
2022-08-11T08:06:35.513Z,102011.06
2022-08-11T08:09:20.172Z,102016.44
2022-08-11T08:12:06.189Z,102010.53
2022-08-11T08:14:53.148Z,102016.09
2022-08-11T08:17:40.858Z,102016.84
2022-08-11T08:20:13.586Z,102010.53
2022-08-11T08:22:45.118Z,102013.13
2022-08-11T08:25:17.766Z,102009.38
2022-08-11T08:27:45.864Z,102014.75
2022-08-11T08:30:32.593Z,102013.41
2022-08-11T08:33:01.105Z,102016.19
2022-08-11T08:35:32.885Z,102008.81
2022-08-11T08:38:01.052Z,102007.09
2022-08-11T08:40:28.551Z,102012.56
2022-08-11T08:43:07.340Z,102012.59
2022-08-11T08:45:39.524Z,102015.81
2022-08-11T08:48:18.164Z,102012.53
2022-08-11T08:51:15.013Z,102008.84
2022-08-11T08:53:53.481Z,102009.47
2022-08-11T08:56:29.028Z,102007.22
2022-08-11T08:59:00.460Z,102005.69
2022-08-11T09:01:33.565Z,101998.53
2022-08-11T09:04:07.324Z,102001.22
2022-08-11T09:06:40.218Z,102000.88
2022-08-11T09:09:09.057Z,101999.06
2022-08-11T09:11:56.025Z,102008.41
2022-08-11T09:14:46.202Z,102000.22
2022-08-11T09:17:14.374Z,101999.75
2022-08-11T09:19:41.811Z,101996.47
2022-08-11T09:22:28.158Z,101998.56
2022-08-11T09:25:15.289Z,101986.94
2022-08-11T09:27:50.107Z,101990.69
2022-08-11T09:30:20.812Z,101992.69
2022-08-11T09:32:48.172Z,101983.03
2022-08-11T09:35:17.769Z,101985.91
2022-08-11T09:38:03.766Z,101977.53
2022-08-11T09:40:31.049Z,101991.88
2022-08-11T09:43:25.792Z,101979.75
2022-08-11T09:45:55.787Z,101981.75
2022-08-11T09:48:26.533Z,101984.34
2022-08-11T09:50:57.325Z,101987.69
2022-08-11T09:53:37.436Z,101988.78
2022-08-11T09:56:35.067Z,101974.28
2022-08-11T09:59:04.469Z,101974.38
2022-08-11T10:01:50.392Z,101976.81
2022-08-11T10:04:24.919Z,101971.84
2022-08-11T10:07:05.322Z,101964.03
2022-08-11T10:10:05.776Z,101961.84
2022-08-11T10:12:36.117Z,101957.78
2022-08-11T10:15:28.577Z,101971.47
2022-08-11T10:18:23.810Z,101965.84
2022-08-11T10:20:55.517Z,101969.06
2022-08-11T10:24:01.271Z,101956.66
2022-08-11T10:27:06.055Z,101959.34
2022-08-11T10:29:56.565Z,101955.56
2022-08-11T10:32:57.634Z,101965.25
2022-08-11T10:35:32.006Z,101961.19
2022-08-11T10:38:06.463Z,101949.47
2022-08-11T10:40:40.803Z,101949.34
2022-08-11T10:44:03.069Z,101951.75
2022-08-11T10:46:29.629Z,101954.97
2022-08-11T10:49:00.061Z,101956.59
2022-08-11T10:51:51.718Z,101950.63
2022-08-11T10:54:39.362Z,101946.16
2022-08-11T10:57:25.337Z,101944.88
2022-08-11T10:59:56.783Z,101937.63
2022-08-11T11:02:27.184Z,101943.84
2022-08-11T11:05:31.565Z,101944.91
2022-08-11T11:08:32.460Z,101938.50
2022-08-11T11:11:02.629Z,101922.63
2022-08-11T11:13:55.113Z,101935.22
2022-08-11T11:16:45.155Z,101927.75
2022-08-11T11:19:19.092Z,101929.56
2022-08-11T11:21:49.095Z,101922.97
2022-08-11T11:25:01.656Z,101936.09
2022-08-11T11:27:46.817Z,101934.09
2022-08-11T11:30:16.009Z,101926.28
2022-08-11T11:33:23.513Z,101932.69
2022-08-11T11:36:02.183Z,101938.72
2022-08-11T11:38:30.025Z,101931.34
2022-08-11T11:41:15.822Z,101918.63
2022-08-11T11:43:43.711Z,101919.94
2022-08-11T11:46:11.249Z,101918.84
2022-08-11T11:48:39.448Z,101913.28
2022-08-11T11:51:07.585Z,101905.69
2022-08-11T11:53:36.185Z,101897.63
2022-08-11T11:56:04.176Z,101911.56
2022-08-11T11:58:49.983Z,101908.72
2022-08-11T12:01:19.796Z,101904.56
2022-08-11T12:03:51.185Z,101900.16
2022-08-11T12:06:22.123Z,101901.59
2022-08-11T12:08:53.689Z,101904.44
2022-08-11T12:11:43.728Z,101900.16
2022-08-11T12:14:12.564Z,101897.94
2022-08-11T12:16:43.597Z,101900.47
2022-08-11T12:19:16.716Z,101895.06
2022-08-11T12:22:02.917Z,101884.56
2022-08-11T12:24:51.766Z,101894.59
2022-08-11T12:27:24.276Z,101883.38
2022-08-11T12:30:13.271Z,101881.53
2022-08-11T12:32:43.177Z,101877.91
2022-08-11T12:35:11.434Z,101874.66
2022-08-11T12:37:49.621Z,101866.25
2022-08-11T12:41:11.575Z,101861.19
2022-08-11T12:43:56.920Z,101858.44
2022-08-11T12:46:34.575Z,101854.97
2022-08-11T12:49:32.894Z,101848.97
2022-08-11T12:52:14.112Z,101850.63
2022-08-11T12:55:41.827Z,101846.59
2022-08-11T12:58:17.244Z,101836.44
2022-08-11T13:01:07.241Z,101854.31
2022-08-11T13:03:58.983Z,101843.84
2022-08-11T13:06:26.954Z,101836.19
2022-08-11T13:09:01.020Z,101837.00
2022-08-11T13:11:56.823Z,101828.63
2022-08-11T13:14:27.365Z,101821.66
2022-08-11T13:17:13.845Z,101822.53
2022-08-11T13:19:48.861Z,101821.75
2022-08-11T13:22:20.884Z,101818.72
2022-08-11T13:24:50.221Z,101809.94
2022-08-11T13:27:19.002Z,101818.16
2022-08-11T13:29:47.878Z,101808.38
2022-08-11T13:32:16.490Z,101815.66
2022-08-11T13:34:44.369Z,101805.16
2022-08-11T13:37:14.582Z,101803.72
2022-08-11T13:39:47.409Z,101807.31
2022-08-11T13:42:20.216Z,101795.69
2022-08-11T13:44:48.282Z,101797.97
2022-08-11T13:47:16.411Z,101800.41
2022-08-11T13:49:45.015Z,101793.72
2022-08-11T13:52:16.224Z,101792.16
2022-08-11T13:54:48.127Z,101794.66
2022-08-11T13:58:07.515Z,101792.22
2022-08-11T14:00:27.677Z,101798.53
2022-08-11T14:02:57.767Z,101781.91
2022-08-11T14:05:34.177Z,101788.81
2022-08-11T14:08:33.453Z,101784.81
2022-08-11T14:12:22.487Z,101782.72
2022-08-11T14:14:13.845Z,101780.66
2022-08-11T14:16:44.898Z,101787.19
2022-08-11T14:19:15.214Z,101780.81
2022-08-11T14:22:07.222Z,101783.56
2022-08-11T14:24:49.652Z,101782.47
2022-08-11T14:28:30.582Z,101783.19
2022-08-11T14:30:26.665Z,101783.06
2022-08-11T14:32:56.095Z,101776.31
2022-08-11T14:35:27.453Z,101771.91
2022-08-11T14:37:57.071Z,101767.59
2022-08-11T14:40:43.223Z,101764.56
2022-08-11T14:44:12.918Z,101757.88
2022-08-11T14:46:34.857Z,101768.75
2022-08-11T14:49:02.520Z,101762.16
2022-08-11T14:51:29.803Z,101754.63
2022-08-11T14:54:17.640Z,101757.63
2022-08-11T14:56:45.182Z,101758.44
2022-08-11T14:59:14.053Z,101757.91
2022-08-11T15:02:00.307Z,101765.97
2022-08-11T15:04:36.115Z,101754.34
2022-08-11T15:07:04.777Z,101746.56
2022-08-11T15:12:35.326Z,101746.97
2022-08-11T15:15:28.582Z,101744.09
2022-08-11T15:18:14.926Z,101745.09
2022-08-11T15:21:02.842Z,101738.94
2022-08-11T15:23:51.640Z,101731.34
2022-08-11T15:26:51.121Z,101728.63
2022-08-11T15:29:43.669Z,101729.06
2022-08-11T15:32:23.901Z,101732.28
2022-08-11T15:35:20.566Z,101725.56
2022-08-11T15:37:53.296Z,101723.06
2022-08-11T15:40:56.491Z,101726.19
2022-08-11T15:43:50.120Z,101734.50
2022-08-11T15:46:26.173Z,101721.59
2022-08-11T15:49:23.756Z,101717.44
2022-08-11T15:52:09.121Z,101710.34
2022-08-11T15:54:44.401Z,101709.22
2022-08-11T15:57:39.606Z,101713.41
2022-08-11T16:00:26.741Z,101702.69
2022-08-11T16:02:56.710Z,101704.63
2022-08-11T16:05:45.697Z,101704.41
2022-08-11T16:08:16.942Z,101705.41
2022-08-11T16:10:56.280Z,101704.53
2022-08-11T16:13:25.644Z,101700.72
2022-08-11T16:16:15.492Z,101698.84
2022-08-11T16:18:57.017Z,101697.84
2022-08-11T16:21:36.458Z,101689.31
2022-08-11T16:25:58.019Z,101690.53
2022-08-11T16:27:10.384Z,101682.41
2022-08-11T16:29:45.381Z,101686.19
2022-08-11T16:32:17.586Z,101685.28
2022-08-11T16:35:14.125Z,101688.31
2022-08-11T16:38:01.976Z,101682.81
2022-08-11T16:40:30.479Z,101679.97
2022-08-11T16:43:17.525Z,101675.22
2022-08-11T16:46:04.335Z,101676.38
2022-08-11T16:48:38.167Z,101681.44
2022-08-11T16:51:08.670Z,101685.59
2022-08-11T16:53:59.834Z,101677.72
2022-08-11T16:56:41.809Z,101674.09
2022-08-11T16:59:23.831Z,101673.44
2022-08-11T17:01:56.151Z,101672.34
2022-08-11T17:04:58.215Z,101671.22
2022-08-11T17:07:46.096Z,101667.88
2022-08-11T17:10:53.350Z,101671.44
2022-08-11T17:13:48.462Z,101673.03
2022-08-11T17:16:25.577Z,101675.88
2022-08-11T17:19:02.804Z,101682.22
2022-08-11T17:22:01.654Z,101677.53
2022-08-11T17:24:31.597Z,101667.56
2022-08-11T17:27:00.966Z,101675.41
2022-08-11T17:29:58.133Z,101672.00
2022-08-11T17:32:56.515Z,101672.97
2022-08-11T17:35:34.034Z,101671.00
2022-08-11T17:38:06.921Z,101667.16
2022-08-11T17:40:38.929Z,101673.94
2022-08-11T17:43:28.533Z,101679.50
2022-08-11T17:46:16.293Z,101668.13
2022-08-11T17:48:48.222Z,101675.56
2022-08-11T17:51:38.135Z,101670.19
2022-08-11T17:54:25.902Z,101673.06
2022-08-11T17:57:20.334Z,101664.44
2022-08-11T17:59:56.357Z,101658.13
2022-08-11T18:03:10.507Z,101658.41
2022-08-11T18:05:43.607Z,101672.56
2022-08-11T18:08:32.082Z,101656.06
2022-08-11T18:12:07.153Z,101646.78
2022-08-11T18:14:30.544Z,101651.28
2022-08-11T18:17:16.540Z,101650.44
2022-08-11T18:20:02.262Z,101654.50
2022-08-11T18:22:54.857Z,101653.41
2022-08-11T18:25:50.016Z,101653.03
2022-08-11T18:28:43.364Z,101645.72
2022-08-11T18:31:34.253Z,101655.47
2022-08-11T18:34:29.844Z,101661.78
2022-08-11T18:37:29.070Z,101662.34
2022-08-11T18:40:26.051Z,101650.84
2022-08-11T18:43:16.590Z,101661.44
2022-08-11T18:46:07.876Z,101657.06
2022-08-11T18:48:57.474Z,101658.53
2022-08-11T18:51:45.234Z,101657.84
2022-08-11T18:54:32.540Z,101662.81
2022-08-11T18:57:25.484Z,101657.25
2022-08-11T19:00:13.555Z,101662.69
2022-08-11T19:03:03.687Z,101663.81
2022-08-11T19:06:32.508Z,101657.56
2022-08-11T19:09:05.316Z,101664.41
2022-08-11T19:11:53.633Z,101662.69
2022-08-11T19:14:41.282Z,101664.47
2022-08-11T19:17:44.683Z,101672.31
2022-08-11T19:20:38.433Z,101675.50
2022-08-11T19:23:28.379Z,101677.59
2022-08-11T19:26:17.195Z,101677.13
2022-08-11T19:29:06.615Z,101683.34
2022-08-11T19:31:53.461Z,101680.84
2022-08-11T19:34:41.980Z,101689.13
2022-08-11T19:37:29.795Z,101689.47
2022-08-11T19:40:28.354Z,101687.22
2022-08-11T19:43:24.475Z,101693.31
2022-08-11T19:46:16.730Z,101688.97
2022-08-11T19:49:11.760Z,101688.34
2022-08-11T19:51:58.698Z,101695.75
2022-08-11T19:54:48.851Z,101691.50
2022-08-11T19:57:39.596Z,101693.63
2022-08-11T20:00:31.625Z,101686.69
2022-08-11T20:03:24.284Z,101685.03
2022-08-11T20:06:11.140Z,101691.47
2022-08-11T20:09:02.042Z,101688.06
2022-08-11T20:11:53.956Z,101691.00
2022-08-11T20:14:40.749Z,101685.47
2022-08-11T20:17:29.045Z,101680.94
2022-08-11T20:20:18.591Z,101687.28
2022-08-11T20:23:06.287Z,101690.38
2022-08-11T20:25:55.744Z,101687.44
2022-08-11T20:28:50.198Z,101692.13
2022-08-11T20:31:37.052Z,101690.13
2022-08-11T20:34:24.214Z,101687.78
2022-08-11T20:37:13.334Z,101686.03
2022-08-11T20:40:02.227Z,101691.41
2022-08-11T20:42:49.534Z,101691.13
2022-08-11T20:45:37.553Z,101693.16
2022-08-11T20:48:41.030Z,101695.69
2022-08-11T20:51:27.720Z,101682.66
2022-08-11T20:54:43.482Z,101688.63
2022-08-11T20:57:46.012Z,101692.34
2022-08-11T21:00:39.197Z,101698.19
2022-08-11T21:03:35.586Z,101686.75
2022-08-11T21:06:31.697Z,101688.09
2022-08-11T21:09:23.985Z,101684.09
2022-08-11T21:12:29.727Z,101688.88
2022-08-11T21:15:38.859Z,101689.16
2022-08-11T21:18:28.402Z,101689.66
2022-08-11T21:21:18.354Z,101689.63
2022-08-11T21:24:06.955Z,101688.94
2022-08-11T21:27:03.448Z,101690.16
2022-08-11T21:29:53.794Z,101688.06
2022-08-11T21:32:42.628Z,101680.88
2022-08-11T21:35:29.965Z,101681.84
2022-08-11T21:38:17.005Z,101685.03
2022-08-11T21:41:04.337Z,101687.44
2022-08-11T21:43:51.152Z,101689.59
2022-08-11T21:46:42.543Z,101686.19
2022-08-11T21:49:29.966Z,101691.19
2022-08-11T21:55:02.386Z,101688.28
2022-08-11T21:57:50.269Z,101694.72
2022-08-11T22:00:36.536Z,101688.94
2022-08-11T22:03:23.733Z,101680.22
2022-08-11T22:06:12.265Z,101678.00
2022-08-11T22:08:58.051Z,101681.19
2022-08-11T22:11:43.831Z,101685.06
2022-08-11T22:14:29.644Z,101681.00
2022-08-11T22:17:15.296Z,101682.66
2022-08-11T22:20:01.289Z,101680.06
2022-08-11T22:22:53.051Z,101677.47
2022-08-11T22:25:51.025Z,101681.16
2022-08-11T22:28:38.537Z,101686.75
2022-08-11T22:31:25.684Z,101684.19
2022-08-11T22:34:11.554Z,101690.09
2022-08-11T22:36:58.602Z,101683.84
2022-08-11T22:39:45.038Z,101684.53
2022-08-11T22:42:47.440Z,101679.97
2022-08-11T22:45:33.463Z,101676.97
2022-08-11T22:48:20.558Z,101678.78
2022-08-11T22:51:06.752Z,101681.31
2022-08-11T22:53:57.214Z,101682.19
2022-08-11T22:56:48.371Z,101677.13
2022-08-11T22:59:37.040Z,101674.84
2022-08-11T23:02:25.321Z,101670.69
2022-08-11T23:05:11.466Z,101672.06
2022-08-11T23:07:57.831Z,101675.63
2022-08-11T23:10:45.203Z,101674.63
2022-08-11T23:13:32.618Z,101677.75
2022-08-11T23:16:19.288Z,101677.03
2022-08-11T23:19:05.328Z,101671.09
2022-08-11T23:21:52.233Z,101668.94
2022-08-11T23:24:40.086Z,101669.50
2022-08-11T23:27:28.309Z,101665.13
2022-08-11T23:30:19.089Z,101663.63
2022-08-11T23:33:09.826Z,101664.84
2022-08-11T23:36:03.336Z,101655.84
2022-08-11T23:38:51.899Z,101660.47
2022-08-11T23:41:38.289Z,101664.06
2022-08-11T23:44:26.632Z,101655.19
2022-08-11T23:47:19.654Z,101659.59
2022-08-11T23:50:08.429Z,101666.94
2022-08-11T23:52:54.663Z,101662.59
2022-08-11T23:55:40.979Z,101660.97
2022-08-11T23:58:27.990Z,101662.09
